sensor_id;sensor_type;location;lat;lon;timestamp;temperature;humidity
69546;SHT31;56766;52.260;20.746;2024-03-02T00:01:31;7.19;85.42
69546;SHT31;56766;52.260;20.746;2024-03-02T00:03:58;7.18;85.48
69546;SHT31;56766;52.260;20.746;2024-03-02T00:06:24;7.18;85.50
69546;SHT31;56766;52.260;20.746;2024-03-02T00:08:57;7.19;85.51
69546;SHT31;56766;52.260;20.746;2024-03-02T00:11:25;7.20;85.52
69546;SHT31;56766;52.260;20.746;2024-03-02T00:13:53;7.20;85.57
69546;SHT31;56766;52.260;20.746;2024-03-02T00:16:20;7.21;85.58
69546;SHT31;56766;52.260;20.746;2024-03-02T00:18:47;7.22;85.63
69546;SHT31;56766;52.260;20.746;2024-03-02T00:21:13;7.22;85.61
69546;SHT31;56766;52.260;20.746;2024-03-02T00:23:42;7.22;85.55
69546;SHT31;56766;52.260;20.746;2024-03-02T00:26:11;7.20;85.59
69546;SHT31;56766;52.260;20.746;2024-03-02T00:28:39;7.18;85.60
69546;SHT31;56766;52.260;20.746;2024-03-02T00:31:08;7.16;85.70
69546;SHT31;56766;52.260;20.746;2024-03-02T00:33:48;7.15;85.70
69546;SHT31;56766;52.260;20.746;2024-03-02T00:36:21;7.14;85.77
69546;SHT31;56766;52.260;20.746;2024-03-02T00:38:52;7.13;85.89
69546;SHT31;56766;52.260;20.746;2024-03-02T00:41:24;7.12;85.90
69546;SHT31;56766;52.260;20.746;2024-03-02T00:44:00;7.10;85.88
69546;SHT31;56766;52.260;20.746;2024-03-02T00:46:30;7.11;85.90
69546;SHT31;56766;52.260;20.746;2024-03-02T00:49:02;7.10;85.96
69546;SHT31;56766;52.260;20.746;2024-03-02T00:51:34;7.10;85.91
69546;SHT31;56766;52.260;20.746;2024-03-02T00:54:04;7.09;86.01
69546;SHT31;56766;52.260;20.746;2024-03-02T00:56:33;7.09;86.02
69546;SHT31;56766;52.260;20.746;2024-03-02T00:59:01;7.08;86.02
69546;SHT31;56766;52.260;20.746;2024-03-02T01:01:28;7.06;86.07
69546;SHT31;56766;52.260;20.746;2024-03-02T01:03:54;7.05;86.00
69546;SHT31;56766;52.260;20.746;2024-03-02T01:06:21;7.02;86.01
69546;SHT31;56766;52.260;20.746;2024-03-02T01:08:48;6.98;86.07
69546;SHT31;56766;52.260;20.746;2024-03-02T01:11:18;6.95;86.08
69546;SHT31;56766;52.260;20.746;2024-03-02T01:13:48;6.91;86.14
69546;SHT31;56766;52.260;20.746;2024-03-02T01:16:15;6.88;86.19
69546;SHT31;56766;52.260;20.746;2024-03-02T01:18:42;6.84;86.29
69546;SHT31;56766;52.260;20.746;2024-03-02T01:21:08;6.81;86.30
69546;SHT31;56766;52.260;20.746;2024-03-02T01:23:35;6.78;86.40
69546;SHT31;56766;52.260;20.746;2024-03-02T01:26:02;6.76;86.40
69546;SHT31;56766;52.260;20.746;2024-03-02T01:28:29;6.73;86.50
69546;SHT31;56766;52.260;20.746;2024-03-02T01:30:56;6.72;86.51
69546;SHT31;56766;52.260;20.746;2024-03-02T01:33:22;6.69;86.56
69546;SHT31;56766;52.260;20.746;2024-03-02T01:35:49;6.67;86.61
69546;SHT31;56766;52.260;20.746;2024-03-02T01:38:16;6.66;86.69
69546;SHT31;56766;52.260;20.746;2024-03-02T01:40:42;6.65;86.71
69546;SHT31;56766;52.260;20.746;2024-03-02T01:43:11;6.63;86.75
69546;SHT31;56766;52.260;20.746;2024-03-02T01:45:38;6.60;86.77
69546;SHT31;56766;52.260;20.746;2024-03-02T01:48:06;6.58;86.87
69546;SHT31;56766;52.260;20.746;2024-03-02T01:50:33;6.58;86.90
69546;SHT31;56766;52.260;20.746;2024-03-02T01:53:01;6.56;86.93
69546;SHT31;56766;52.260;20.746;2024-03-02T01:55:30;6.56;86.92
69546;SHT31;56766;52.260;20.746;2024-03-02T01:57:58;6.54;86.97
69546;SHT31;56766;52.260;20.746;2024-03-02T02:00:25;6.53;86.93
69546;SHT31;56766;52.260;20.746;2024-03-02T02:02:53;6.50;86.98
69546;SHT31;56766;52.260;20.746;2024-03-02T02:05:21;6.49;87.06
69546;SHT31;56766;52.260;20.746;2024-03-02T02:07:48;6.47;87.12
69546;SHT31;56766;52.260;20.746;2024-03-02T02:10:15;6.47;87.11
69546;SHT31;56766;52.260;20.746;2024-03-02T02:12:42;6.45;87.20
69546;SHT31;56766;52.260;20.746;2024-03-02T02:15:26;6.45;87.24
69546;SHT31;56766;52.260;20.746;2024-03-02T02:17:55;6.47;87.30
69546;SHT31;56766;52.260;20.746;2024-03-02T02:20:24;6.48;87.37
69546;SHT31;56766;52.260;20.746;2024-03-02T02:23:02;6.48;87.40
69546;SHT31;56766;52.260;20.746;2024-03-02T02:25:31;6.51;87.40
69546;SHT31;56766;52.260;20.746;2024-03-02T02:27:58;6.53;87.44
69546;SHT31;56766;52.260;20.746;2024-03-02T02:30:30;6.54;87.39
69546;SHT31;56766;52.260;20.746;2024-03-02T02:32:58;6.57;87.38
69546;SHT31;56766;52.260;20.746;2024-03-02T02:35:25;6.58;87.38
69546;SHT31;56766;52.260;20.746;2024-03-02T02:37:54;6.59;87.40
69546;SHT31;56766;52.260;20.746;2024-03-02T02:40:22;6.60;87.36
69546;SHT31;56766;52.260;20.746;2024-03-02T02:42:49;6.61;87.31
69546;SHT31;56766;52.260;20.746;2024-03-02T02:45:18;6.60;87.30
69546;SHT31;56766;52.260;20.746;2024-03-02T02:47:45;6.60;87.30
69546;SHT31;56766;52.260;20.746;2024-03-02T02:50:12;6.59;87.28
69546;SHT31;56766;52.260;20.746;2024-03-02T02:52:40;6.59;87.33
69546;SHT31;56766;52.260;20.746;2024-03-02T02:55:10;6.59;87.35
69546;SHT31;56766;52.260;20.746;2024-03-02T02:57:40;6.59;87.31
69546;SHT31;56766;52.260;20.746;2024-03-02T03:00:11;6.59;87.36
69546;SHT31;56766;52.260;20.746;2024-03-02T03:02:44;6.61;87.37
69546;SHT31;56766;52.260;20.746;2024-03-02T03:05:14;6.64;87.39
69546;SHT31;56766;52.260;20.746;2024-03-02T03:07:42;6.65;87.40
69546;SHT31;56766;52.260;20.746;2024-03-02T03:10:10;6.66;87.40
69546;SHT31;56766;52.260;20.746;2024-03-02T03:12:37;6.69;87.43
69546;SHT31;56766;52.260;20.746;2024-03-02T03:15:04;6.70;87.35
69546;SHT31;56766;52.260;20.746;2024-03-02T03:17:33;6.72;87.30
69546;SHT31;56766;52.260;20.746;2024-03-02T03:20:00;6.73;87.30
69546;SHT31;56766;52.260;20.746;2024-03-02T03:22:28;6.74;87.30
69546;SHT31;56766;52.260;20.746;2024-03-02T03:24:54;6.76;87.27
69546;SHT31;56766;52.260;20.746;2024-03-02T03:27:21;6.76;87.21
69546;SHT31;56766;52.260;20.746;2024-03-02T03:29:48;6.77;87.20
69546;SHT31;56766;52.260;20.746;2024-03-02T03:32:15;6.78;87.20
69546;SHT31;56766;52.260;20.746;2024-03-02T03:34:43;6.78;87.20
69546;SHT31;56766;52.260;20.746;2024-03-02T03:37:10;6.76;87.20
69546;SHT31;56766;52.260;20.746;2024-03-02T03:39:37;6.76;87.14
69546;SHT31;56766;52.260;20.746;2024-03-02T03:42:04;6.74;87.10
69546;SHT31;56766;52.260;20.746;2024-03-02T03:44:31;6.72;87.10
69546;SHT31;56766;52.260;20.746;2024-03-02T03:46:57;6.70;87.10
69546;SHT31;56766;52.260;20.746;2024-03-02T03:49:24;6.65;87.15
69546;SHT31;56766;52.260;20.746;2024-03-02T03:51:51;6.60;87.21
69546;SHT31;56766;52.260;20.746;2024-03-02T03:54:17;6.59;87.20
69546;SHT31;56766;52.260;20.746;2024-03-02T03:56:44;6.56;87.20
69546;SHT31;56766;52.260;20.746;2024-03-02T03:59:10;6.53;87.20
69546;SHT31;56766;52.260;20.746;2024-03-02T04:01:38;6.50;87.21
69546;SHT31;56766;52.260;20.746;2024-03-02T04:04:05;6.46;87.26
69546;SHT31;56766;52.260;20.746;2024-03-02T04:06:31;6.43;87.27
69546;SHT31;56766;52.260;20.746;2024-03-02T04:08:58;6.37;87.31
69546;SHT31;56766;52.260;20.746;2024-03-02T04:11:25;6.32;87.40
69546;SHT31;56766;52.260;20.746;2024-03-02T04:13:52;6.30;87.50
69546;SHT31;56766;52.260;20.746;2024-03-02T04:16:19;6.27;87.55
69546;SHT31;56766;52.260;20.746;2024-03-02T04:18:45;6.26;87.60
69546;SHT31;56766;52.260;20.746;2024-03-02T04:21:12;6.25;87.68
69546;SHT31;56766;52.260;20.746;2024-03-02T04:23:38;6.26;87.70
69546;SHT31;56766;52.260;20.746;2024-03-02T04:26:05;6.27;87.70
69546;SHT31;56766;52.260;20.746;2024-03-02T04:28:32;6.28;87.71
69546;SHT31;56766;52.260;20.746;2024-03-02T04:30:59;6.30;87.82
69546;SHT31;56766;52.260;20.746;2024-03-02T04:33:26;6.29;87.80
69546;SHT31;56766;52.260;20.746;2024-03-02T04:35:52;6.29;87.80
69546;SHT31;56766;52.260;20.746;2024-03-02T04:38:19;6.29;87.80
69546;SHT31;56766;52.260;20.746;2024-03-02T04:40:46;6.29;87.80
69546;SHT31;56766;52.260;20.746;2024-03-02T04:43:13;6.27;87.80
69546;SHT31;56766;52.260;20.746;2024-03-02T04:45:42;6.25;87.80
69546;SHT31;56766;52.260;20.746;2024-03-02T04:48:09;6.23;87.80
69546;SHT31;56766;52.260;20.746;2024-03-02T04:50:36;6.20;87.81
69546;SHT31;56766;52.260;20.746;2024-03-02T04:53:03;6.17;87.86
69546;SHT31;56766;52.260;20.746;2024-03-02T04:55:29;6.14;87.91
69546;SHT31;56766;52.260;20.746;2024-03-02T04:58:02;6.12;88.00
69546;SHT31;56766;52.260;20.746;2024-03-02T05:00:29;6.09;88.00
69546;SHT31;56766;52.260;20.746;2024-03-02T05:02:56;6.06;88.04
69546;SHT31;56766;52.260;20.746;2024-03-02T05:05:23;6.05;88.09
69546;SHT31;56766;52.260;20.746;2024-03-02T05:07:49;6.03;88.10
69546;SHT31;56766;52.260;20.746;2024-03-02T05:10:16;6.00;88.10
69546;SHT31;56766;52.260;20.746;2024-03-02T05:12:43;5.98;88.11
69546;SHT31;56766;52.260;20.746;2024-03-02T05:15:11;5.97;88.20
69546;SHT31;56766;52.260;20.746;2024-03-02T05:17:42;5.94;88.24
69546;SHT31;56766;52.260;20.746;2024-03-02T05:20:09;5.94;88.31
69546;SHT31;56766;52.260;20.746;2024-03-02T05:22:37;5.92;88.30
69546;SHT31;56766;52.260;20.746;2024-03-02T05:25:05;5.91;88.32
69546;SHT31;56766;52.260;20.746;2024-03-02T05:27:33;5.91;88.33
69546;SHT31;56766;52.260;20.746;2024-03-02T05:30:00;5.90;88.41
69546;SHT31;56766;52.260;20.746;2024-03-02T05:32:28;5.89;88.48
69546;SHT31;56766;52.260;20.746;2024-03-02T05:34:54;5.89;88.46
69546;SHT31;56766;52.260;20.746;2024-03-02T05:37:21;5.89;88.59
69546;SHT31;56766;52.260;20.746;2024-03-02T05:39:48;5.90;88.59
69546;SHT31;56766;52.260;20.746;2024-03-02T05:42:15;5.91;88.60
69546;SHT31;56766;52.260;20.746;2024-03-02T05:44:43;5.92;88.56
69546;SHT31;56766;52.260;20.746;2024-03-02T05:47:09;5.93;88.59
69546;SHT31;56766;52.260;20.746;2024-03-02T05:49:36;5.94;88.60
69546;SHT31;56766;52.260;20.746;2024-03-02T05:52:03;5.96;88.60
69546;SHT31;56766;52.260;20.746;2024-03-02T05:54:30;5.98;88.60
69546;SHT31;56766;52.260;20.746;2024-03-02T05:56:56;6.00;88.60
69546;SHT31;56766;52.260;20.746;2024-03-02T05:59:23;6.03;88.59
69546;SHT31;56766;52.260;20.746;2024-03-02T06:01:50;6.04;88.60
69546;SHT31;56766;52.260;20.746;2024-03-02T06:04:19;6.06;88.58
69546;SHT31;56766;52.260;20.746;2024-03-02T06:06:46;6.08;88.50
69546;SHT31;56766;52.260;20.746;2024-03-02T06:09:13;6.12;88.50
69546;SHT31;56766;52.260;20.746;2024-03-02T06:11:40;6.13;88.51
69546;SHT31;56766;52.260;20.746;2024-03-02T06:14:08;6.17;88.50
69546;SHT31;56766;52.260;20.746;2024-03-02T06:16:35;6.19;88.50
69546;SHT31;56766;52.260;20.746;2024-03-02T06:19:02;6.21;88.50
69546;SHT31;56766;52.260;20.746;2024-03-02T06:21:29;6.24;88.47
69546;SHT31;56766;52.260;20.746;2024-03-02T06:23:56;6.28;88.42
69546;SHT31;56766;52.260;20.746;2024-03-02T06:26:23;6.30;88.40
69546;SHT31;56766;52.260;20.746;2024-03-02T06:28:49;6.34;88.40
69546;SHT31;56766;52.260;20.746;2024-03-02T06:31:17;6.36;88.37
69546;SHT31;56766;52.260;20.746;2024-03-02T06:33:43;6.40;88.30
69546;SHT31;56766;52.260;20.746;2024-03-02T06:36:10;6.43;88.30
69546;SHT31;56766;52.260;20.746;2024-03-02T06:38:38;6.47;88.30
69546;SHT31;56766;52.260;20.746;2024-03-02T06:41:07;6.49;88.25
69546;SHT31;56766;52.260;20.746;2024-03-02T06:43:34;6.52;88.20
69546;SHT31;56766;52.260;20.746;2024-03-02T06:46:00;6.57;88.20
69546;SHT31;56766;52.260;20.746;2024-03-02T06:48:28;6.62;88.18
69546;SHT31;56766;52.260;20.746;2024-03-02T06:50:56;6.67;88.10
69546;SHT31;56766;52.260;20.746;2024-03-02T06:53:24;6.72;88.07
69546;SHT31;56766;52.260;20.746;2024-03-02T06:55:51;6.77;87.99
69546;SHT31;56766;52.260;20.746;2024-03-02T06:58:18;6.82;87.93
69546;SHT31;56766;52.260;20.746;2024-03-02T07:00:44;6.88;87.87
69546;SHT31;56766;52.260;20.746;2024-03-02T07:03:11;6.93;87.74
69546;SHT31;56766;52.260;20.746;2024-03-02T07:05:39;6.97;87.64
69546;SHT31;56766;52.260;20.746;2024-03-02T07:08:06;7.03;87.58
69546;SHT31;56766;52.260;20.746;2024-03-02T07:10:33;7.08;87.50
69546;SHT31;56766;52.260;20.746;2024-03-02T07:12:59;7.15;87.52
69546;SHT31;56766;52.260;20.746;2024-03-02T07:15:26;7.21;87.41
69546;SHT31;56766;52.260;20.746;2024-03-02T07:17:53;7.28;87.23
69546;SHT31;56766;52.260;20.746;2024-03-02T07:20:20;7.33;87.19
69546;SHT31;56766;52.260;20.746;2024-03-02T07:22:47;7.38;87.00
69546;SHT31;56766;52.260;20.746;2024-03-02T07:25:13;7.42;86.84
69546;SHT31;56766;52.260;20.746;2024-03-02T07:27:40;7.47;86.81
69546;SHT31;56766;52.260;20.746;2024-03-02T07:30:07;7.54;86.67
69546;SHT31;56766;52.260;20.746;2024-03-02T07:32:34;7.61;86.64
69546;SHT31;56766;52.260;20.746;2024-03-02T07:35:01;7.68;86.61
69546;SHT31;56766;52.260;20.746;2024-03-02T07:37:30;7.72;86.42
69546;SHT31;56766;52.260;20.746;2024-03-02T07:39:57;7.77;86.38
69546;SHT31;56766;52.260;20.746;2024-03-02T07:42:24;7.80;86.21
69546;SHT31;56766;52.260;20.746;2024-03-02T07:44:51;7.80;86.00
69546;SHT31;56766;52.260;20.746;2024-03-02T07:47:18;7.81;86.00
69546;SHT31;56766;52.260;20.746;2024-03-02T07:49:44;7.82;85.84
69546;SHT31;56766;52.260;20.746;2024-03-02T07:52:12;7.84;85.80
69546;SHT31;56766;52.260;20.746;2024-03-02T07:54:39;7.85;85.72
69546;SHT31;56766;52.260;20.746;2024-03-02T07:57:06;7.85;85.53
69546;SHT31;56766;52.260;20.746;2024-03-02T07:59:32;7.84;85.59
69546;SHT31;56766;52.260;20.746;2024-03-02T08:01:59;7.83;85.53
69546;SHT31;56766;52.260;20.746;2024-03-02T08:04:27;7.83;85.53
69546;SHT31;56766;52.260;20.746;2024-03-02T08:06:54;7.82;85.52
69546;SHT31;56766;52.260;20.746;2024-03-02T08:09:21;7.84;85.52
69546;SHT31;56766;52.260;20.746;2024-03-02T08:11:47;7.84;85.50
69546;SHT31;56766;52.260;20.746;2024-03-02T08:14:14;7.84;85.55
69546;SHT31;56766;52.260;20.746;2024-03-02T08:16:41;7.84;85.57
69546;SHT31;56766;52.260;20.746;2024-03-02T08:19:08;7.83;85.50
69546;SHT31;56766;52.260;20.746;2024-03-02T08:21:35;7.81;85.52
69546;SHT31;56766;52.260;20.746;2024-03-02T08:24:02;7.80;85.49
69546;SHT31;56766;52.260;20.746;2024-03-02T08:26:30;7.78;85.48
69546;SHT31;56766;52.260;20.746;2024-03-02T08:28:59;7.78;85.44
69546;SHT31;56766;52.260;20.746;2024-03-02T08:31:28;7.78;85.48
69546;SHT31;56766;52.260;20.746;2024-03-02T08:33:54;7.79;85.43
69546;SHT31;56766;52.260;20.746;2024-03-02T08:36:21;7.82;85.50
69546;SHT31;56766;52.260;20.746;2024-03-02T08:38:51;7.85;85.56
69546;SHT31;56766;52.260;20.746;2024-03-02T08:41:18;7.88;85.39
69546;SHT31;56766;52.260;20.746;2024-03-02T08:43:45;7.91;85.40
69546;SHT31;56766;52.260;20.746;2024-03-02T08:46:13;7.96;85.37
69546;SHT31;56766;52.260;20.746;2024-03-02T08:48:39;7.98;85.27
69546;SHT31;56766;52.260;20.746;2024-03-02T08:51:06;7.99;85.18
69546;SHT31;56766;52.260;20.746;2024-03-02T08:53:34;7.99;85.13
69546;SHT31;56766;52.260;20.746;2024-03-02T08:56:00;8.02;85.12
69546;SHT31;56766;52.260;20.746;2024-03-02T08:58:28;8.05;85.11
69546;SHT31;56766;52.260;20.746;2024-03-02T09:00:54;8.07;85.12
69546;SHT31;56766;52.260;20.746;2024-03-02T09:03:21;8.09;85.10
69546;SHT31;56766;52.260;20.746;2024-03-02T09:05:48;8.12;85.05
69546;SHT31;56766;52.260;20.746;2024-03-02T09:08:15;8.14;85.01
69546;SHT31;56766;52.260;20.746;2024-03-02T09:10:41;8.16;85.02
69546;SHT31;56766;52.260;20.746;2024-03-02T09:13:08;8.17;84.84
69546;SHT31;56766;52.260;20.746;2024-03-02T09:15:35;8.20;84.94
69546;SHT31;56766;52.260;20.746;2024-03-02T09:18:04;8.26;84.95
69546;SHT31;56766;52.260;20.746;2024-03-02T09:20:31;8.31;84.77
69546;SHT31;56766;52.260;20.746;2024-03-02T09:22:57;8.38;84.71
69546;SHT31;56766;52.260;20.746;2024-03-02T09:25:24;8.48;84.70
69546;SHT31;56766;52.260;20.746;2024-03-02T09:27:52;8.62;84.68
69546;SHT31;56766;52.260;20.746;2024-03-02T09:30:18;8.78;84.48
69546;SHT31;56766;52.260;20.746;2024-03-02T09:32:45;8.92;84.35
69546;SHT31;56766;52.260;20.746;2024-03-02T09:35:12;9.02;83.97
69546;SHT31;56766;52.260;20.746;2024-03-02T09:37:38;9.10;83.72
69546;SHT31;56766;52.260;20.746;2024-03-02T09:40:05;9.17;83.59
69546;SHT31;56766;52.260;20.746;2024-03-02T09:42:33;9.20;83.25
69546;SHT31;56766;52.260;20.746;2024-03-02T09:45:00;9.22;83.04
69546;SHT31;56766;52.260;20.746;2024-03-02T09:47:27;9.25;83.07
69546;SHT31;56766;52.260;20.746;2024-03-02T09:49:54;9.26;82.92
69546;SHT31;56766;52.260;20.746;2024-03-02T09:52:22;9.23;82.76
69546;SHT31;56766;52.260;20.746;2024-03-02T09:54:50;9.23;82.68
69546;SHT31;56766;52.260;20.746;2024-03-02T09:57:16;9.28;82.93
69546;SHT31;56766;52.260;20.746;2024-03-02T09:59:43;9.32;82.74
69546;SHT31;56766;52.260;20.746;2024-03-02T10:02:11;9.35;82.65
69546;SHT31;56766;52.260;20.746;2024-03-02T10:04:38;9.38;82.41
69546;SHT31;56766;52.260;20.746;2024-03-02T10:07:13;9.38;82.35
69546;SHT31;56766;52.260;20.746;2024-03-02T10:09:42;9.41;82.38
69546;SHT31;56766;52.260;20.746;2024-03-02T10:12:12;9.48;82.32
69546;SHT31;56766;52.260;20.746;2024-03-02T10:14:41;9.51;82.24
69546;SHT31;56766;52.260;20.746;2024-03-02T10:17:10;9.57;81.85
69546;SHT31;56766;52.260;20.746;2024-03-02T10:19:40;9.60;81.35
69546;SHT31;56766;52.260;20.746;2024-03-02T10:22:08;9.68;81.50
69546;SHT31;56766;52.260;20.746;2024-03-02T10:24:41;9.77;81.37
69546;SHT31;56766;52.260;20.746;2024-03-02T10:27:18;9.88;81.33
69546;SHT31;56766;52.260;20.746;2024-03-02T10:29:49;10.00;81.03
69546;SHT31;56766;52.260;20.746;2024-03-02T10:32:16;10.15;80.99
69546;SHT31;56766;52.260;20.746;2024-03-02T10:34:45;10.34;81.10
69546;SHT31;56766;52.260;20.746;2024-03-02T10:37:14;10.56;80.73
69546;SHT31;56766;52.260;20.746;2024-03-02T10:39:42;10.72;80.22
69546;SHT31;56766;52.260;20.746;2024-03-02T10:42:09;10.89;79.93
69546;SHT31;56766;52.260;20.746;2024-03-02T10:44:36;11.02;79.49
69546;SHT31;56766;52.260;20.746;2024-03-02T10:47:04;11.09;78.64
69546;SHT31;56766;52.260;20.746;2024-03-02T10:49:32;11.08;78.61
69546;SHT31;56766;52.260;20.746;2024-03-02T10:52:00;11.13;78.51
69546;SHT31;56766;52.260;20.746;2024-03-02T10:54:27;11.15;78.26
69546;SHT31;56766;52.260;20.746;2024-03-02T10:57:03;11.19;78.08
69546;SHT31;56766;52.260;20.746;2024-03-02T10:59:36;11.26;78.07
69546;SHT31;56766;52.260;20.746;2024-03-02T11:02:06;11.35;77.86
69546;SHT31;56766;52.260;20.746;2024-03-02T11:04:40;11.45;77.53
69546;SHT31;56766;52.260;20.746;2024-03-02T11:07:10;11.51;77.38
69546;SHT31;56766;52.260;20.746;2024-03-02T11:09:41;11.58;77.47
69546;SHT31;56766;52.260;20.746;2024-03-02T11:12:23;11.65;77.56
69546;SHT31;56766;52.260;20.746;2024-03-02T11:14:56;11.70;77.14
69546;SHT31;56766;52.260;20.746;2024-03-02T11:17:24;11.67;76.92
69546;SHT31;56766;52.260;20.746;2024-03-02T11:19:53;11.65;76.95
69546;SHT31;56766;52.260;20.746;2024-03-02T11:22:21;11.65;76.67
69546;SHT31;56766;52.260;20.746;2024-03-02T11:24:49;11.64;76.84
69546;SHT31;56766;52.260;20.746;2024-03-02T11:32:59;11.59;76.21
69546;SHT31;56766;52.260;20.746;2024-03-02T11:35:27;11.59;76.28
69546;SHT31;56766;52.260;20.746;2024-03-02T11:37:55;11.60;76.07
69546;SHT31;56766;52.260;20.746;2024-03-02T11:40:25;11.57;75.73
69546;SHT31;56766;52.260;20.746;2024-03-02T11:42:52;11.58;76.29
69546;SHT31;56766;52.260;20.746;2024-03-02T11:45:23;11.65;76.02
69546;SHT31;56766;52.260;20.746;2024-03-02T11:47:54;11.70;75.85
69546;SHT31;56766;52.260;20.746;2024-03-02T11:50:42;11.76;75.72
69546;SHT31;56766;52.260;20.746;2024-03-02T11:53:13;11.81;75.97
69546;SHT31;56766;52.260;20.746;2024-03-02T11:55:41;11.80;75.79
69546;SHT31;56766;52.260;20.746;2024-03-02T11:58:13;11.75;75.91
69546;SHT31;56766;52.260;20.746;2024-03-02T12:00:43;11.71;76.18
69546;SHT31;56766;52.260;20.746;2024-03-02T12:03:14;11.67;75.94
69546;SHT31;56766;52.260;20.746;2024-03-02T12:05:42;11.67;76.01
69546;SHT31;56766;52.260;20.746;2024-03-02T12:08:09;11.68;75.95
69546;SHT31;56766;52.260;20.746;2024-03-02T12:10:39;11.68;75.55
69546;SHT31;56766;52.260;20.746;2024-03-02T12:13:07;11.71;75.96
69546;SHT31;56766;52.260;20.746;2024-03-02T12:15:37;11.75;75.60
69546;SHT31;56766;52.260;20.746;2024-03-02T12:18:07;11.84;75.84
69546;SHT31;56766;52.260;20.746;2024-03-02T12:20:34;11.93;75.88
69546;SHT31;56766;52.260;20.746;2024-03-02T12:23:02;12.02;75.57
69546;SHT31;56766;52.260;20.746;2024-03-02T12:25:31;12.10;75.41
69546;SHT31;56766;52.260;20.746;2024-03-02T12:28:02;12.21;75.00
69546;SHT31;56766;52.260;20.746;2024-03-02T12:30:31;12.34;75.24
69546;SHT31;56766;52.260;20.746;2024-03-02T12:33:02;12.47;74.75
69546;SHT31;56766;52.260;20.746;2024-03-02T12:35:29;12.58;74.85
69546;SHT31;56766;52.260;20.746;2024-03-02T12:37:56;12.69;74.57
69546;SHT31;56766;52.260;20.746;2024-03-02T12:40:23;12.77;74.06
69546;SHT31;56766;52.260;20.746;2024-03-02T12:42:50;12.79;73.90
69546;SHT31;56766;52.260;20.746;2024-03-02T12:45:17;12.86;74.18
69546;SHT31;56766;52.260;20.746;2024-03-02T12:47:50;12.89;73.94
69546;SHT31;56766;52.260;20.746;2024-03-02T12:50:18;12.87;73.65
69546;SHT31;56766;52.260;20.746;2024-03-02T12:52:52;12.80;73.53
69546;SHT31;56766;52.260;20.746;2024-03-02T12:55:22;12.74;73.60
69546;SHT31;56766;52.260;20.746;2024-03-02T12:57:50;12.71;73.62
69546;SHT31;56766;52.260;20.746;2024-03-02T13:00:19;12.64;73.43
69546;SHT31;56766;52.260;20.746;2024-03-02T13:02:47;12.58;73.36
69546;SHT31;56766;52.260;20.746;2024-03-02T13:05:15;12.52;73.53
69546;SHT31;56766;52.260;20.746;2024-03-02T13:07:42;12.48;73.74
69546;SHT31;56766;52.260;20.746;2024-03-02T13:10:08;12.49;73.82
69546;SHT31;56766;52.260;20.746;2024-03-02T13:12:36;12.52;73.65
69546;SHT31;56766;52.260;20.746;2024-03-02T13:15:04;12.56;73.82
69546;SHT31;56766;52.260;20.746;2024-03-02T13:17:35;12.59;73.57
69546;SHT31;56766;52.260;20.746;2024-03-02T13:20:02;12.57;73.47
69546;SHT31;56766;52.260;20.746;2024-03-02T13:22:30;12.59;73.46
69546;SHT31;56766;52.260;20.746;2024-03-02T13:24:57;12.59;73.52
69546;SHT31;56766;52.260;20.746;2024-03-02T13:27:26;12.59;73.25
69546;SHT31;56766;52.260;20.746;2024-03-02T13:29:54;12.56;73.30
69546;SHT31;56766;52.260;20.746;2024-03-02T13:32:20;12.55;73.25
69546;SHT31;56766;52.260;20.746;2024-03-02T13:34:50;12.53;73.33
69546;SHT31;56766;52.260;20.746;2024-03-02T13:37:17;12.45;72.92
69546;SHT31;56766;52.260;20.746;2024-03-02T13:39:44;12.43;73.57
69546;SHT31;56766;52.260;20.746;2024-03-02T13:42:11;12.40;73.60
69546;SHT31;56766;52.260;20.746;2024-03-02T13:44:43;12.38;73.85
69546;SHT31;56766;52.260;20.746;2024-03-02T13:47:13;12.39;73.87
69546;SHT31;56766;52.260;20.746;2024-03-02T13:49:40;12.35;73.66
69546;SHT31;56766;52.260;20.746;2024-03-02T13:52:10;12.34;73.90
69546;SHT31;56766;52.260;20.746;2024-03-02T13:54:48;12.28;73.74
69546;SHT31;56766;52.260;20.746;2024-03-02T13:57:15;12.23;73.83
69546;SHT31;56766;52.260;20.746;2024-03-02T13:59:44;12.20;74.03
69546;SHT31;56766;52.260;20.746;2024-03-02T14:02:12;12.16;73.80
69546;SHT31;56766;52.260;20.746;2024-03-02T14:04:39;12.09;73.74
69546;SHT31;56766;52.260;20.746;2024-03-02T14:07:06;12.03;73.89
69546;SHT31;56766;52.260;20.746;2024-03-02T14:09:37;11.98;74.33
69546;SHT31;56766;52.260;20.746;2024-03-02T14:12:05;11.93;74.37
69546;SHT31;56766;52.260;20.746;2024-03-02T14:14:32;11.87;74.49
69546;SHT31;56766;52.260;20.746;2024-03-02T14:16:59;11.79;74.53
69546;SHT31;56766;52.260;20.746;2024-03-02T14:19:32;11.71;74.69
69546;SHT31;56766;52.260;20.746;2024-03-02T14:21:59;11.63;74.85
69546;SHT31;56766;52.260;20.746;2024-03-02T14:24:26;11.55;74.95
69546;SHT31;56766;52.260;20.746;2024-03-02T14:26:54;11.47;75.24
69546;SHT31;56766;52.260;20.746;2024-03-02T14:29:23;11.39;75.47
69546;SHT31;56766;52.260;20.746;2024-03-02T14:31:50;11.31;75.56
69546;SHT31;56766;52.260;20.746;2024-03-02T14:34:17;11.25;75.69
69546;SHT31;56766;52.260;20.746;2024-03-02T14:36:43;11.18;75.81
69546;SHT31;56766;52.260;20.746;2024-03-02T14:39:11;11.11;75.82
69546;SHT31;56766;52.260;20.746;2024-03-02T14:41:38;11.04;76.04
69546;SHT31;56766;52.260;20.746;2024-03-02T14:44:05;10.97;76.31
69546;SHT31;56766;52.260;20.746;2024-03-02T14:46:32;10.89;76.52
69546;SHT31;56766;52.260;20.746;2024-03-02T14:49:00;10.83;76.58
69546;SHT31;56766;52.260;20.746;2024-03-02T14:51:26;10.77;76.68
69546;SHT31;56766;52.260;20.746;2024-03-02T14:53:53;10.72;76.79
69546;SHT31;56766;52.260;20.746;2024-03-02T14:56:20;10.67;76.83
69546;SHT31;56766;52.260;20.746;2024-03-02T14:58:46;10.61;76.83
69546;SHT31;56766;52.260;20.746;2024-03-02T15:01:13;10.53;76.93
69546;SHT31;56766;52.260;20.746;2024-03-02T15:03:40;10.46;76.95
69546;SHT31;56766;52.260;20.746;2024-03-02T15:06:07;10.42;77.17
69546;SHT31;56766;52.260;20.746;2024-03-02T15:08:34;10.35;77.17
69546;SHT31;56766;52.260;20.746;2024-03-02T15:11:01;10.31;77.32
69546;SHT31;56766;52.260;20.746;2024-03-02T15:13:28;10.27;77.39
69546;SHT31;56766;52.260;20.746;2024-03-02T15:15:56;10.23;77.52
69546;SHT31;56766;52.260;20.746;2024-03-02T15:18:22;10.20;77.62
69546;SHT31;56766;52.260;20.746;2024-03-02T15:20:50;10.17;77.77
69546;SHT31;56766;52.260;20.746;2024-03-02T15:23:17;10.15;77.88
69546;SHT31;56766;52.260;20.746;2024-03-02T15:25:43;10.10;78.04
69546;SHT31;56766;52.260;20.746;2024-03-02T15:28:10;10.07;78.20
69546;SHT31;56766;52.260;20.746;2024-03-02T15:30:37;10.03;78.28
69546;SHT31;56766;52.260;20.746;2024-03-02T15:33:04;9.97;78.30
69546;SHT31;56766;52.260;20.746;2024-03-02T15:35:30;9.94;78.36